Time;durP1;ratioP1;P1;durP2;ratioP2;P2;SDS_P1;SDS_P2;PMS_P1;PMS_P2;Temp;Humidity;BMP_temperature;BMP_pressure;BME280_temperature;BME280_humidity;BME280_pressure;Samples;Min_cycle;Max_cycle;Signal;HPM_P1;HPM_P2
2022/05/24 00:02:01;;;;;;;;;5.75;5.75;;;;;16.03;68.69;99964.69;5033953;28;45413;-78
2022/05/24 00:04:26;;;;;;;;;9.25;9.25;;;;;16.10;68.40;99979.22;5032977;28;45332;-78
2022/05/24 00:06:51;;;;;;;;;11.50;9.75;;;;;15.97;68.57;99979.53;5032673;28;48137;-78
2022/05/24 00:09:17;;;;;;;;;12.00;12.00;;;;;16.01;69.18;99972.84;5033024;28;47242;-79
2022/05/24 00:11:42;;;;;;;;;9.75;9.75;;;;;16.08;69.53;99979.38;5014268;28;46375;-79
2022/05/24 00:14:07;;;;;;;;;4.50;4.50;;;;;16.07;69.03;99991.09;5034199;28;45410;-79
2022/05/24 00:16:33;;;;;;;;;20.75;20.50;;;;;16.06;69.48;99992.06;5032808;28;46273;-78
2022/05/24 00:18:59;;;;;;;;;19.25;19.25;;;;;16.03;69.77;99984.31;5034513;28;45591;-78
2022/05/24 00:21:25;;;;;;;;;12.25;11.75;;;;;16.07;69.82;100001.84;5032256;28;45400;-78
2022/05/24 00:23:50;;;;;;;;;8.25;7.25;;;;;16.06;68.92;100018.91;5033162;28;45514;-78
2022/05/24 00:26:24;;;;;;;;;6.00;6.00;;;;;16.11;68.72;100023.88;5033662;28;45790;-78
2022/05/24 00:28:49;;;;;;;;;9.25;6.25;;;;;16.04;68.09;100033.47;5032657;28;45368;-78
2022/05/24 00:31:15;;;;;;;;;5.50;4.50;;;;;15.97;67.11;100017.94;5032116;28;46144;-78
2022/05/24 00:33:40;;;;;;;;;3.75;3.75;;;;;15.94;67.85;100009.31;5032597;28;45728;-78
2022/05/24 00:36:06;;;;;;;;;23.25;21.00;;;;;15.94;67.98;100003.94;5032772;28;45608;-77
2022/05/24 00:38:36;;;;;;;;;8.00;7.75;;;;;15.97;68.23;100009.88;5033352;28;45364;-78
2022/05/24 00:41:26;;;;;;;;;5.00;5.00;;;;;15.98;67.80;99994.63;5032955;28;45517;-78
2022/05/24 00:43:55;;;;;;;;;3.25;3.25;;;;;15.96;67.75;99975.97;5033204;28;45446;-78
2022/05/24 00:46:25;;;;;;;;;2.50;2.00;;;;;15.86;65.66;99971.59;5028355;28;46486;-77
2022/05/24 00:49:08;;;;;;;;;3.75;2.25;;;;;15.87;65.90;99978.63;5026336;28;45373;-78
2022/05/24 00:51:51;;;;;;;;;5.00;2.00;;;;;15.81;65.80;99974.69;5032425;28;45437;-77
2022/05/24 00:54:17;;;;;;;;;3.00;3.00;;;;;15.86;66.00;99982.31;5032893;28;45595;-79
2022/05/24 00:57:05;;;;;;;;;2.50;2.00;;;;;15.85;66.39;99980.59;5032286;28;45912;-79
2022/05/24 00:59:46;;;;;;;;;1.00;1.00;;;;;15.79;65.42;99989.22;5033052;28;45733;-79
2022/05/24 01:02:12;;;;;;;;;1.50;1.50;;;;;15.74;65.66;99987.78;5032157;28;45302;-79
2022/05/24 01:04:38;;;;;;;;;1.50;1.50;;;;;15.69;64.97;99986.50;5032808;28;45502;-79
2022/05/24 01:07:04;;;;;;;;;3.75;1.75;;;;;15.60;64.78;99995.34;5032544;28;46484;-79
2022/05/24 01:09:41;;;;;;;;;2.00;2.00;;;;;15.61;64.90;100005.09;5032834;28;45440;-79
2022/05/24 01:12:29;;;;;;;;;4.50;2.75;;;;;15.54;64.83;99997.59;5026656;28;45600;-79
2022/05/24 01:14:56;;;;;;;;;2.00;2.00;;;;;15.50;65.33;100014.09;5032670;28;45531;-79
2022/05/24 01:17:21;;;;;;;;;2.00;2.00;;;;;15.45;65.06;100032.44;5033471;28;46174;-79
2022/05/24 01:19:48;;;;;;;;;3.00;1.00;;;;;15.33;65.07;100016.44;5032211;28;45461;-78
2022/05/24 01:22:43;;;;;;;;;2.00;2.00;;;;;15.36;65.07;100019.84;5032330;28;45233;-78
2022/05/24 01:25:28;;;;;;;;;2.00;2.00;;;;;15.20;65.46;100020.31;5011421;28;46042;-79
2022/05/24 01:27:53;;;;;;;;;3.75;2.75;;;;;15.13;65.74;100017.34;5017802;28;47509;-78
2022/05/24 01:30:19;;;;;;;;;1.00;1.00;;;;;15.11;65.75;100025.50;5034633;28;45949;-78
2022/05/24 01:38:17;;;;;;;;;3.50;1.00;;;;;15.04;65.79;100018.97;5036417;28;45930;-77
2022/05/24 01:40:43;;;;;;;;;1.75;1.75;;;;;15.08;66.47;100015.06;5035363;28;45416;-77
2022/05/24 01:43:09;;;;;;;;;1.00;1.00;;;;;15.13;65.62;100014.66;5034728;28;45514;-77
2022/05/24 01:45:40;;;;;;;;;1.50;1.00;;;;;15.03;65.68;100003.03;5035031;28;45779;-77
2022/05/24 01:48:12;;;;;;;;;1.00;1.00;;;;;15.02;65.79;99993.28;5035449;28;46277;-77
2022/05/24 01:50:40;;;;;;;;;0.00;0.00;;;;;14.99;65.01;99998.94;5035605;28;46281;-77
2022/05/24 01:53:18;;;;;;;;;1.25;1.25;;;;;14.94;65.22;100020.75;5035986;28;45575;-77
2022/05/24 01:55:50;;;;;;;;;2.25;1.00;;;;;14.87;65.28;100017.75;5034108;28;45504;-77
2022/05/24 01:58:18;;;;;;;;;1.00;1.00;;;;;14.86;65.46;100020.56;5034359;28;45622;-77
2022/05/24 02:00:52;;;;;;;;;0.00;0.00;;;;;14.87;65.84;100028.47;5035689;28;45503;-77
2022/05/24 02:03:17;;;;;;;;;2.00;0.00;;;;;14.87;65.59;100049.06;5018146;28;45541;-77
2022/05/24 02:05:43;;;;;;;;;2.00;2.00;;;;;14.77;64.99;100034.72;5034551;28;45335;-77
2022/05/24 02:08:10;;;;;;;;;1.00;1.00;;;;;14.69;65.64;100043.44;5036954;28;45555;-78
2022/05/24 02:10:41;;;;;;;;;1.00;1.00;;;;;14.70;66.03;100046.00;5036238;28;45471;-77
2022/05/24 02:13:07;;;;;;;;;0.25;0.25;;;;;14.72;65.31;100045.00;5017658;28;45538;-77
2022/05/24 02:15:37;;;;;;;;;1.50;1.50;;;;;14.61;65.43;100035.19;5031326;28;45473;-76
2022/05/24 02:18:13;;;;;;;;;1.00;1.00;;;;;14.70;65.58;100039.78;5021292;28;45867;-77
2022/05/24 02:20:43;;;;;;;;;1.00;1.00;;;;;14.77;65.82;100038.28;5020432;28;45362;-77
2022/05/24 02:23:11;;;;;;;;;1.75;1.00;;;;;14.63;65.55;100030.56;5029180;28;45553;-77
2022/05/24 02:25:41;;;;;;;;;0.25;0.25;;;;;14.62;65.83;100031.53;5033288;28;45473;-77
2022/05/24 02:28:09;;;;;;;;;0.00;0.00;;;;;14.56;65.90;100048.97;5015211;28;47241;-78
2022/05/24 02:30:41;;;;;;;;;2.75;1.00;;;;;14.58;66.14;100038.16;5024178;28;46167;-78
2022/05/24 02:33:06;;;;;;;;;1.00;1.00;;;;;14.61;66.13;100037.88;5021614;28;45651;-78
2022/05/24 02:35:32;;;;;;;;;2.50;0.25;;;;;14.66;66.21;100038.34;5028872;28;45429;-78
2022/05/24 02:37:57;;;;;;;;;0.00;0.00;;;;;14.67;65.90;100035.53;5024355;28;46097;-78
2022/05/24 02:43:07;;;;;;;;;1.50;1.50;;;;;14.73;65.17;100044.03;5024966;28;45401;-78
2022/05/24 02:45:33;;;;;;;;;0.00;0.00;;;;;14.67;64.66;100053.41;5006761;28;45471;-78
2022/05/24 02:47:58;;;;;;;;;0.00;0.00;;;;;14.63;64.92;100043.97;5020488;28;45365;-77
2022/05/24 02:50:24;;;;;;;;;1.00;1.00;;;;;14.65;65.05;100048.22;5003046;28;45484;-77
2022/05/24 02:52:49;;;;;;;;;1.00;1.00;;;;;14.63;65.28;100042.13;5024485;28;45290;-78
2022/05/24 02:55:15;;;;;;;;;1.00;1.00;;;;;14.58;65.26;100052.38;5024621;28;45353;-77
2022/05/24 02:57:41;;;;;;;;;0.00;0.00;;;;;14.60;65.34;100060.28;5024476;28;46510;-77
2022/05/24 03:00:13;;;;;;;;;0.75;0.75;;;;;14.64;65.52;100067.91;5003506;28;45318;-77
2022/05/24 03:02:41;;;;;;;;;2.00;2.00;;;;;14.67;65.56;100069.50;5019950;28;45428;-77
2022/05/24 03:05:07;;;;;;;;;1.75;1.00;;;;;14.72;65.67;100061.94;5022827;28;45467;-77
2022/05/24 03:10:18;;;;;;;;;0.00;0.00;;;;;14.65;64.85;100072.31;5024083;28;47942;-78
2022/05/24 03:15:27;;;;;;;;;0.00;0.00;;;;;14.72;65.24;100079.81;5024152;28;45324;-77
2022/05/24 03:17:52;;;;;;;;;1.00;1.00;;;;;14.74;65.33;100072.50;5019103;28;45274;-78
2022/05/24 03:20:17;;;;;;;;;0.75;0.75;;;;;14.68;65.06;100080.09;5003065;28;51038;-77
2022/05/24 03:22:43;;;;;;;;;1.00;0.00;;;;;14.70;64.85;100083.50;5024229;28;45524;-77
2022/05/24 03:25:08;;;;;;;;;0.50;0.00;;;;;14.69;65.01;100080.94;5006273;28;45588;-77
2022/05/24 03:27:34;;;;;;;;;2.00;2.00;;;;;14.72;65.25;100074.47;5023976;28;46663;-77
2022/05/24 03:29:59;;;;;;;;;1.75;1.00;;;;;14.79;64.99;100092.59;5019874;28;45487;-77
2022/05/24 03:32:25;;;;;;;;;2.75;2.00;;;;;14.77;64.96;100091.00;5030161;28;45580;-77
2022/05/24 03:34:50;;;;;;;;;0.00;0.00;;;;;14.76;64.88;100092.84;5024327;28;45330;-77
2022/05/24 03:37:16;;;;;;;;;0.00;0.00;;;;;14.76;64.58;100108.91;5023781;28;45487;-77
2022/05/24 03:39:41;;;;;;;;;1.50;1.50;;;;;14.70;64.81;100110.28;5005922;28;45564;-78
2022/05/24 03:42:07;;;;;;;;;1.00;1.00;;;;;14.57;64.44;100106.91;5020805;28;45506;-78
2022/05/24 03:44:32;;;;;;;;;0.75;0.50;;;;;14.52;64.99;100103.75;5019456;28;46074;-78
2022/05/24 03:46:58;;;;;;;;;0.00;0.00;;;;;14.52;64.99;100101.06;5022237;28;45389;-78
2022/05/24 03:49:23;;;;;;;;;1.00;1.00;;;;;14.53;65.03;100107.25;5023642;28;50200;-77
2022/05/24 03:51:49;;;;;;;;;2.50;1.25;;;;;14.58;65.50;100105.09;5023887;28;45764;-77
2022/05/24 03:54:15;;;;;;;;;1.00;1.00;;;;;14.60;65.15;100119.19;5021701;28;45389;-77
2022/05/24 03:59:26;;;;;;;;;1.00;1.00;;;;;14.68;65.02;100125.63;5019803;28;45396;-77
2022/05/24 04:01:51;;;;;;;;;2.25;1.00;;;;;14.70;65.06;100128.19;5023430;28;45535;-78
2022/05/24 04:04:17;;;;;;;;;1.00;1.00;;;;;14.70;64.58;100130.88;5023646;28;45273;-78
2022/05/24 04:06:42;;;;;;;;;1.00;1.00;;;;;14.70;64.59;100141.59;5023470;28;46529;-77
2022/05/24 04:09:07;;;;;;;;;1.75;1.75;;;;;14.60;64.50;100137.94;5020371;28;45446;-78
2022/05/24 04:11:34;;;;;;;;;0.50;0.50;;;;;14.62;64.69;100146.72;5019081;28;45347;-78
2022/05/24 04:14:00;;;;;;;;;0.50;0.50;;;;;14.57;64.79;100152.44;5022052;28;45770;-77
2022/05/24 04:16:26;;;;;;;;;0.50;0.50;;;;;14.48;64.84;100139.81;5023296;28;46298;-78
2022/05/24 04:18:51;;;;;;;;;1.00;1.00;;;;;14.53;64.96;100139.41;5023162;28;45335;-78
2022/05/24 04:21:16;;;;;;;;;3.00;1.25;;;;;14.50;64.55;100153.91;5021262;28;52964;-77
2022/05/24 04:23:42;;;;;;;;;1.00;1.00;;;;;14.43;64.98;100145.53;5018687;28;45331;-77
2022/05/24 04:26:07;;;;;;;;;1.75;1.00;;;;;14.43;65.25;100158.06;5002023;28;47340;-77
2022/05/24 04:28:34;;;;;;;;;0.25;0.25;;;;;14.40;65.20;100148.44;5022990;28;45291;-77
2022/05/24 04:30:59;;;;;;;;;1.00;1.00;;;;;14.35;64.98;100152.47;5023130;28;45462;-77
2022/05/24 04:33:25;;;;;;;;;0.50;0.50;;;;;14.27;65.49;100151.28;5022314;28;45383;-77
2022/05/24 04:35:51;;;;;;;;;1.00;1.00;;;;;14.20;65.37;100149.22;5018242;28;45446;-77
2022/05/24 04:38:17;;;;;;;;;0.50;0.50;;;;;14.16;65.48;100158.47;5002564;28;45310;-78
2022/05/24 04:43:26;;;;;;;;;1.00;1.00;;;;;14.15;65.77;100176.38;5022336;28;45370;-77
2022/05/24 04:45:53;;;;;;;;;0.75;0.75;;;;;14.15;65.68;100180.88;5021787;28;46341;-77
2022/05/24 04:48:20;;;;;;;;;0.75;0.75;;;;;14.15;65.92;100183.56;5020430;28;45567;-77
2022/05/24 04:50:45;;;;;;;;;2.00;1.00;;;;;14.11;66.03;100188.28;5017378;28;45349;-77
2022/05/24 04:53:11;;;;;;;;;0.00;0.00;;;;;14.14;65.96;100182.72;5002154;28;45523;-77
2022/05/24 04:55:36;;;;;;;;;0.75;0.75;;;;;14.07;66.28;100193.03;5021735;28;51734;-77
2022/05/24 04:58:02;;;;;;;;;0.00;0.00;;;;;14.02;65.81;100175.63;5022545;28;45398;-77
2022/05/24 05:00:27;;;;;;;;;0.75;0.75;;;;;14.05;66.32;100195.00;5025473;28;45796;-77
2022/05/24 05:02:52;;;;;;;;;2.00;1.00;;;;;14.06;65.91;100185.97;5020824;28;45397;-78
2022/05/24 05:05:19;;;;;;;;;0.00;0.00;;;;;14.02;65.91;100205.06;5022500;28;46245;-77
2022/05/24 05:07:44;;;;;;;;;1.00;0.00;;;;;14.00;65.22;100205.22;5025520;28;45491;-77
2022/05/24 05:10:12;;;;;;;;;2.00;1.00;;;;;13.97;65.80;100210.78;5025315;28;45523;-77
2022/05/24 05:12:37;;;;;;;;;2.00;0.00;;;;;13.96;65.10;100210.94;5025521;28;45425;-77
2022/05/24 05:15:05;;;;;;;;;0.50;0.50;;;;;13.97;65.65;100202.75;5003572;28;47694;-77
2022/05/24 05:17:30;;;;;;;;;0.00;0.00;;;;;13.95;65.60;100210.06;5021014;28;45295;-78
2022/05/24 05:19:56;;;;;;;;;0.00;0.00;;;;;13.91;65.51;100216.63;5024698;28;45472;-77
2022/05/24 05:22:22;;;;;;;;;1.00;1.00;;;;;13.93;65.52;100220.06;5025248;28;45462;-77
2022/05/24 05:24:48;;;;;;;;;2.00;0.00;;;;;13.92;65.48;100218.31;5024981;28;46386;-77
2022/05/24 05:27:13;;;;;;;;;0.25;0.25;;;;;13.97;65.58;100218.81;5023046;28;45326;-77
2022/05/24 05:32:26;;;;;;;;;0.00;0.00;;;;;14.07;65.52;100227.00;5021931;28;45499;-77
2022/05/24 05:34:53;;;;;;;;;0.00;0.00;;;;;14.11;65.74;100228.44;5025512;28;46226;-77
2022/05/24 05:37:18;;;;;;;;;2.00;0.00;;;;;14.14;65.19;100233.56;5025556;28;45587;-78
2022/05/24 05:39:44;;;;;;;;;2.00;2.00;;;;;14.15;65.21;100237.94;5025405;28;45555;-77
2022/05/24 05:42:09;;;;;;;;;0.00;0.00;;;;;14.07;64.83;100238.53;5023027;28;45773;-77
2022/05/24 05:44:34;;;;;;;;;0.50;0.00;;;;;14.06;65.36;100244.84;5020847;28;45974;-77
2022/05/24 05:47:00;;;;;;;;;0.00;0.00;;;;;14.06;64.67;100235.97;5025004;28;45431;-78
2022/05/24 05:49:25;;;;;;;;;1.00;1.00;;;;;14.15;64.71;100251.31;5025525;28;47805;-77
2022/05/24 05:51:50;;;;;;;;;0.00;0.00;;;;;14.18;65.11;100258.25;5025293;28;45313;-77
2022/05/24 05:54:16;;;;;;;;;0.50;0.50;;;;;14.18;64.83;100263.59;5022936;28;45420;-77
2022/05/24 05:56:42;;;;;;;;;1.00;1.00;;;;;14.16;65.01;100270.91;5020767;28;45643;-77
2022/05/24 05:59:08;;;;;;;;;1.00;1.00;;;;;14.14;64.65;100280.88;5023920;28;45369;-77
2022/05/24 06:01:33;;;;;;;;;2.00;0.00;;;;;14.19;64.82;100282.25;5030194;28;45538;-77
2022/05/24 06:04:00;;;;;;;;;2.00;1.00;;;;;14.23;65.07;100277.47;5032507;28;46462;-78
2022/05/24 06:06:29;;;;;;;;;0.00;0.00;;;;;14.27;64.31;100284.31;5024374;28;45353;-77
2022/05/24 06:08:54;;;;;;;;;1.00;1.00;;;;;14.36;64.66;100283.59;5017559;28;46396;-77
2022/05/24 06:11:20;;;;;;;;;1.00;1.00;;;;;14.29;64.29;100295.75;5031049;28;45901;-77
2022/05/24 06:13:46;;;;;;;;;2.00;1.50;;;;;14.33;64.47;100291.84;5032909;28;51712;-77
2022/05/24 06:16:13;;;;;;;;;0.75;0.75;;;;;14.35;64.48;100286.38;5031409;28;45622;-77
2022/05/24 06:18:39;;;;;;;;;0.50;0.50;;;;;14.37;63.81;100287.94;5033644;28;45473;-76
2022/05/24 06:21:05;;;;;;;;;1.50;0.00;;;;;14.33;63.88;100299.03;5030962;28;45521;-76
2022/05/24 06:23:30;;;;;;;;;2.25;2.00;;;;;14.37;64.15;100295.13;5030079;28;46666;-76
2022/05/24 06:25:55;;;;;;;;;0.00;0.00;;;;;14.31;63.54;100293.81;5026642;28;45851;-76
2022/05/24 06:28:21;;;;;;;;;2.00;1.50;;;;;14.24;64.15;100295.25;5031866;28;46018;-76
2022/05/24 06:30:46;;;;;;;;;1.00;1.00;;;;;14.31;64.52;100307.19;5031000;28;45449;-75
2022/05/24 06:33:12;;;;;;;;;3.00;2.00;;;;;14.35;63.96;100308.63;5028709;28;45538;-76
2022/05/24 06:35:39;;;;;;;;;1.00;1.00;;;;;14.43;63.82;100321.41;5032197;28;45933;-76
2022/05/24 06:38:04;;;;;;;;;1.00;1.00;;;;;14.48;63.85;100313.91;5026980;28;45559;-76
2022/05/24 06:40:30;;;;;;;;;1.00;1.00;;;;;14.52;63.83;100318.00;5028994;28;46299;-76
2022/05/24 06:42:56;;;;;;;;;1.00;0.25;;;;;14.57;63.81;100313.16;5032103;28;46534;-76
2022/05/24 06:45:21;;;;;;;;;0.25;0.25;;;;;14.57;62.51;100326.56;5014234;28;45400;-74
2022/05/24 06:47:47;;;;;;;;;1.00;1.00;;;;;14.47;62.39;100323.72;5029075;28;45496;-75
2022/05/24 06:50:13;;;;;;;;;0.25;0.25;;;;;14.55;63.15;100320.50;5022719;28;45617;-77
2022/05/24 06:52:39;;;;;;;;;1.00;1.00;;;;;14.67;63.56;100327.56;5024551;28;45461;-76
2022/05/24 06:55:06;;;;;;;;;0.75;0.75;;;;;14.67;62.72;100324.88;5024002;28;45607;-75
2022/05/24 06:57:31;;;;;;;;;0.00;0.00;;;;;14.69;62.72;100333.63;5024419;28;45364;-75
2022/05/24 07:02:40;;;;;;;;;3.00;1.00;;;;;14.78;62.76;100336.56;5018173;28;45828;-75
2022/05/24 07:05:16;;;;;;;;;1.00;1.00;;;;;14.82;61.79;100346.91;5022778;28;45467;-75
2022/05/24 07:07:42;;;;;;;;;1.00;0.00;;;;;14.84;61.82;100336.91;5023974;28;45485;-75
2022/05/24 07:10:10;;;;;;;;;0.50;0.50;;;;;14.91;61.28;100343.50;5024001;28;45415;-74
2022/05/24 07:12:35;;;;;;;;;0.25;0.25;;;;;14.84;61.11;100344.09;5022901;28;45667;-76
2022/05/24 07:15:01;;;;;;;;;0.00;0.00;;;;;14.81;61.70;100349.69;5026590;28;45508;-76
2022/05/24 07:17:26;;;;;;;;;1.75;1.75;;;;;14.81;61.47;100349.69;5025148;28;45336;-76
2022/05/24 07:19:52;;;;;;;;;0.75;0.75;;;;;14.80;61.00;100350.69;5027668;28;45548;-76
2022/05/24 07:22:18;;;;;;;;;1.00;0.25;;;;;14.83;61.67;100356.63;5025193;28;46565;-75
2022/05/24 07:24:47;;;;;;;;;2.00;2.00;;;;;14.82;61.21;100354.94;5010685;28;45536;-76
2022/05/24 07:27:13;;;;;;;;;1.00;1.00;;;;;14.83;61.47;100347.75;5025982;28;45448;-75
2022/05/24 07:29:39;;;;;;;;;1.00;1.00;;;;;14.91;61.61;100356.88;5007252;28;45573;-76
2022/05/24 07:32:06;;;;;;;;;1.00;1.00;;;;;14.90;60.24;100357.00;5024570;28;46032;-76
2022/05/24 07:34:33;;;;;;;;;2.00;1.00;;;;;14.90;61.63;100355.16;5028974;28;45566;-77
2022/05/24 07:37:00;;;;;;;;;0.75;0.50;;;;;14.94;61.10;100362.97;5007367;28;45407;-76
2022/05/24 07:39:26;;;;;;;;;13.25;12.25;;;;;15.07;61.19;100355.63;5027569;28;46540;-76
2022/05/24 07:47:15;;;;;;;;;1.00;1.00;;;;;15.21;60.15;100366.09;5023548;28;45309;-75
2022/05/24 07:49:40;;;;;;;;;1.00;1.00;;;;;15.28;59.54;100363.78;5030701;28;45266;-76
2022/05/24 07:52:07;;;;;;;;;1.00;1.00;;;;;15.31;59.25;100366.19;5026392;28;47847;-76
2022/05/24 07:54:33;;;;;;;;;0.00;0.00;;;;;15.33;58.54;100359.72;5024891;28;45563;-76
2022/05/24 07:56:59;;;;;;;;;0.25;0.25;;;;;15.29;57.86;100360.09;5024832;28;45529;-77
2022/05/24 07:59:25;;;;;;;;;1.25;1.00;;;;;15.33;58.51;100372.28;5026739;28;45560;-76
2022/05/24 08:01:51;;;;;;;;;0.00;0.00;;;;;15.32;58.53;100362.50;5019026;28;45954;-75
2022/05/24 08:04:16;;;;;;;;;1.00;1.00;;;;;15.31;58.12;100368.88;5008338;28;46239;-75
2022/05/24 08:06:42;;;;;;;;;1.75;1.00;;;;;15.34;58.73;100369.50;5028869;28;45676;-75
2022/05/24 08:09:09;;;;;;;;;1.25;0.25;;;;;15.39;58.12;100368.25;5025872;28;45319;-75
2022/05/24 08:11:35;;;;;;;;;2.50;1.00;;;;;15.46;58.07;100361.38;5018130;28;45623;-75
2022/05/24 08:14:02;;;;;;;;;1.00;1.00;;;;;15.47;57.32;100363.09;5021809;28;45405;-76
2022/05/24 08:16:29;;;;;;;;;0.25;0.25;;;;;15.46;58.06;100364.06;5005656;28;45606;-75
2022/05/24 08:18:54;;;;;;;;;0.75;0.00;;;;;15.52;57.35;100366.25;5023104;28;45438;-74
2022/05/24 08:21:20;;;;;;;;;0.75;0.75;;;;;15.59;58.23;100362.09;5021371;28;45396;-75
2022/05/24 08:23:45;;;;;;;;;2.75;1.00;;;;;15.64;57.76;100357.19;5000484;28;45710;-75
2022/05/24 08:26:12;;;;;;;;;2.00;1.00;;;;;15.76;56.96;100361.56;5003629;28;45494;-76
2022/05/24 08:28:38;;;;;;;;;0.00;0.00;;;;;15.82;56.81;100370.91;5023043;28;45544;-76
2022/05/24 08:31:03;;;;;;;;;0.50;0.50;;;;;15.83;56.51;100364.59;5006851;28;47289;-75
2022/05/24 08:33:28;;;;;;;;;1.00;0.75;;;;;15.79;55.95;100362.28;5035202;28;45411;-76
2022/05/24 08:35:55;;;;;;;;;0.00;0.00;;;;;15.79;56.40;100360.44;5022195;28;45518;-76
2022/05/24 08:38:23;;;;;;;;;2.00;1.00;;;;;15.89;55.88;100357.81;5005484;28;45503;-74
2022/05/24 08:40:49;;;;;;;;;1.25;1.25;;;;;15.94;55.50;100366.34;5028428;28;46288;-75
2022/05/24 08:43:40;;;;;;;;;1.00;1.00;;;;;15.96;55.03;100373.28;5026480;28;45539;-75
2022/05/24 08:49:05;;;;;;;;;2.25;1.00;;;;;15.95;54.37;100363.53;5025988;28;45508;-75
2022/05/24 08:51:39;;;;;;;;;2.25;1.00;;;;;16.01;54.97;100372.91;5026090;28;47448;-75
2022/05/24 08:54:10;;;;;;;;;0.25;0.25;;;;;16.03;54.27;100368.25;5023116;28;45408;-75
2022/05/24 08:56:51;;;;;;;;;2.00;1.00;;;;;16.00;54.04;100365.84;5021995;28;45328;-75
2022/05/24 08:59:16;;;;;;;;;1.50;0.25;;;;;16.02;53.88;100366.56;5022655;28;45388;-76
2022/05/24 09:01:44;;;;;;;;;1.00;1.00;;;;;16.00;52.90;100373.88;5008234;28;48176;-74
2022/05/24 09:04:11;;;;;;;;;1.00;1.00;;;;;16.07;53.01;100376.91;5026239;28;45502;-76
2022/05/24 09:06:43;;;;;;;;;1.00;1.00;;;;;16.08;53.57;100376.75;5026203;28;45254;-75
2022/05/24 09:09:28;;;;;;;;;0.00;0.00;;;;;16.11;52.82;100368.44;5020545;28;45425;-76
2022/05/24 09:12:11;;;;;;;;;0.75;0.75;;;;;16.24;52.28;100368.25;5030405;28;46791;-76
2022/05/24 09:14:55;;;;;;;;;1.00;1.00;;;;;16.29;51.86;100370.56;5016146;28;45464;-76
2022/05/24 09:17:29;;;;;;;;;1.00;1.00;;;;;16.33;51.56;100372.84;5003671;28;45453;-76
2022/05/24 09:19:55;;;;;;;;;1.25;1.25;;;;;16.33;51.79;100371.97;5007579;28;45677;-75
2022/05/24 09:22:22;;;;;;;;;1.75;1.75;;;;;16.32;51.11;100373.81;5028314;28;45629;-74
2022/05/24 09:24:56;;;;;;;;;0.00;0.00;;;;;16.42;51.48;100362.28;5029059;28;45587;-76
2022/05/24 09:27:28;;;;;;;;;1.00;1.00;;;;;16.49;51.66;100366.97;5023538;28;45404;-76
2022/05/24 09:30:25;;;;;;;;;0.50;0.50;;;;;16.65;51.93;100379.09;5019665;28;45554;-76
2022/05/24 09:32:50;;;;;;;;;1.25;1.25;;;;;16.64;49.93;100382.75;5035713;28;45814;-76
2022/05/24 09:35:16;;;;;;;;;1.25;0.25;;;;;16.66;49.73;100370.03;5030930;28;45519;-75
2022/05/24 09:37:43;;;;;;;;;1.25;0.25;;;;;16.68;49.84;100376.13;5029727;28;45511;-76
2022/05/24 09:40:20;;;;;;;;;3.50;3.25;;;;;16.76;50.33;100381.66;5031102;28;45526;-76
2022/05/24 09:42:46;;;;;;;;;1.00;1.00;;;;;16.67;49.78;100379.78;5025298;28;45293;-75
2022/05/24 09:45:21;;;;;;;;;0.00;0.00;;;;;16.58;50.51;100379.59;5021318;28;45384;-76
2022/05/24 09:47:59;;;;;;;;;1.25;1.25;;;;;16.65;51.12;100376.41;5020243;28;45594;-75
2022/05/24 09:50:34;;;;;;;;;1.00;1.00;;;;;16.76;51.03;100392.41;5027030;28;45538;-75
2022/05/24 09:53:02;;;;;;;;;1.00;0.75;;;;;16.85;49.50;100386.28;5022859;28;45495;-76
2022/05/24 09:55:59;;;;;;;;;0.00;0.00;;;;;16.86;48.63;100395.19;5024722;28;45606;-75
2022/05/24 09:58:27;;;;;;;;;0.25;0.25;;;;;16.91;50.53;100385.75;5031172;28;45545;-75
2022/05/24 10:00:56;;;;;;;;;1.75;1.00;;;;;16.91;50.30;100380.38;5024769;28;45832;-76
2022/05/24 10:03:25;;;;;;;;;0.75;0.75;;;;;17.00;50.14;100384.06;5023204;28;45460;-76
2022/05/24 10:06:09;;;;;;;;;0.75;0.75;;;;;17.07;49.43;100385.22;5026567;28;45479;-75
2022/05/24 10:08:37;;;;;;;;;2.50;1.50;;;;;16.99;48.51;100379.69;5017857;28;45420;-75
2022/05/24 10:11:05;;;;;;;;;1.00;1.00;;;;;17.00;49.02;100381.38;5028526;28;45409;-76
2022/05/24 10:14:09;;;;;;;;;0.75;0.75;;;;;17.07;48.27;100387.91;5006461;28;46977;-77
2022/05/24 10:17:02;;;;;;;;;0.00;0.00;;;;;17.05;48.10;100387.19;5022489;28;45497;-76
2022/05/24 10:19:52;;;;;;;;;0.00;0.00;;;;;17.06;47.35;100390.75;5024599;28;45406;-76
2022/05/24 10:22:40;;;;;;;;;2.00;1.00;;;;;17.10;47.23;100390.34;5008436;28;45518;-77
2022/05/24 10:25:14;;;;;;;;;0.00;0.00;;;;;17.11;46.03;100399.25;5027144;28;47220;-76
2022/05/24 10:28:10;;;;;;;;;0.75;0.75;;;;;17.08;47.14;100399.50;5030812;28;45937;-76
2022/05/24 10:31:08;;;;;;;;;1.00;1.00;;;;;17.12;46.98;100391.03;5023952;28;45274;-75
2022/05/24 10:39:52;;;;;;;;;1.00;1.00;;;;;17.19;47.50;100402.94;5026689;28;45472;-75
2022/05/24 10:42:47;;;;;;;;;0.75;0.75;;;;;17.21;47.91;100400.13;5025368;28;45617;-74
2022/05/24 10:45:18;;;;;;;;;0.75;0.75;;;;;17.22;47.79;100393.75;5026035;28;45481;-75
2022/05/24 10:47:50;;;;;;;;;1.25;0.75;;;;;17.23;47.10;100407.06;5024875;28;46417;-75
2022/05/24 10:50:34;;;;;;;;;1.00;1.00;;;;;17.24;47.25;100413.28;5026323;28;45379;-75
2022/05/24 10:53:04;;;;;;;;;1.25;0.00;;;;;17.28;47.58;100403.97;5026326;28;45439;-75
2022/05/24 10:55:37;;;;;;;;;3.50;0.50;;;;;17.30;47.21;100403.84;5027231;28;45588;-76
2022/05/24 10:58:17;;;;;;;;;0.50;0.50;;;;;17.29;47.34;100399.44;5025974;28;46303;-74
2022/05/24 11:00:52;;;;;;;;;0.50;0.50;;;;;17.30;47.09;100404.69;5025222;28;45550;-75
2022/05/24 11:03:31;;;;;;;;;0.00;0.00;;;;;17.31;47.06;100413.59;5012417;28;45345;-75
2022/05/24 11:06:11;;;;;;;;;0.25;0.25;;;;;17.23;47.13;100414.28;5004715;28;45459;-75
2022/05/24 11:08:51;;;;;;;;;1.00;0.00;;;;;17.16;48.12;100415.81;5006546;28;45712;-75
2022/05/24 11:11:32;;;;;;;;;0.00;0.00;;;;;17.19;47.71;100404.78;5028093;28;45522;-75
2022/05/24 11:14:15;;;;;;;;;1.25;0.25;;;;;17.21;46.82;100403.66;5022359;28;45384;-75
2022/05/24 11:16:44;;;;;;;;;0.50;0.50;;;;;17.15;46.21;100400.66;5005768;28;45581;-75
2022/05/24 11:19:16;;;;;;;;;0.75;0.75;;;;;17.16;46.91;100411.28;5023240;28;47909;-75
2022/05/24 11:21:49;;;;;;;;;1.25;1.25;;;;;17.19;47.37;100402.94;5005293;28;45643;-75
2022/05/24 11:24:43;;;;;;;;;3.25;1.75;;;;;17.22;48.09;100393.75;5021997;28;45388;-76
2022/05/24 11:27:13;;;;;;;;;2.25;1.25;;;;;17.24;47.25;100406.09;5014865;28;45534;-75
2022/05/24 11:30:06;;;;;;;;;0.50;0.50;;;;;17.29;47.33;100408.34;5018840;28;45522;-75
2022/05/24 11:32:40;;;;;;;;;1.25;1.25;;;;;17.29;47.32;100410.19;5013306;28;45529;-75
2022/05/24 11:35:23;;;;;;;;;0.50;0.50;;;;;17.40;47.80;100407.41;5022113;28;45420;-76
2022/05/24 11:37:52;;;;;;;;;0.00;0.00;;;;;17.55;47.72;100406.00;5023373;28;45527;-75
2022/05/24 11:40:56;;;;;;;;;0.50;0.50;;;;;17.68;46.32;100401.22;5022126;28;46580;-75
2022/05/24 11:43:38;;;;;;;;;0.00;0.00;;;;;17.75;46.49;100417.66;5020342;28;45543;-75
2022/05/24 11:46:37;;;;;;;;;1.50;1.50;;;;;17.76;50.78;100418.50;5023204;28;45389;-75
2022/05/24 11:49:22;;;;;;;;;3.00;2.00;;;;;17.80;52.42;100407.34;5022699;28;45554;-75
2022/05/24 11:51:51;;;;;;;;;0.25;0.25;;;;;17.80;52.42;100410.03;5021273;28;46209;-75
2022/05/24 11:54:29;;;;;;;;;0.25;0.25;;;;;17.83;53.33;100415.13;5021201;28;45361;-75
2022/05/24 11:57:14;;;;;;;;;2.00;1.00;;;;;17.76;51.85;100395.09;5000271;28;45377;-75
2022/05/24 11:59:40;;;;;;;;;1.00;1.00;;;;;17.79;53.51;100410.97;5013190;28;45858;-75
2022/05/24 12:02:26;;;;;;;;;1.00;1.00;;;;;17.83;55.35;100407.06;5026605;28;46557;-75
2022/05/24 12:08:04;;;;;;;;;0.00;0.00;;;;;17.96;55.20;100405.91;5024132;28;45401;-75
2022/05/24 12:10:49;;;;;;;;;1.50;0.50;;;;;18.03;52.45;100404.34;5020241;28;47219;-76
2022/05/24 12:13:25;;;;;;;;;0.75;0.75;;;;;18.02;51.35;100392.72;5004444;28;46063;-76
2022/05/24 12:15:54;;;;;;;;;1.00;1.00;;;;;18.03;50.41;100394.41;5025382;28;45483;-75
2022/05/24 12:18:24;;;;;;;;;1.00;1.00;;;;;18.09;51.08;100396.56;5001654;28;45567;-76
2022/05/24 12:20:50;;;;;;;;;0.75;0.75;;;;;18.15;51.54;100405.91;5009608;28;45602;-76